Time;durP1;ratioP1;P1;durP2;ratioP2;P2;SDS_P1;SDS_P2;PMS_P1;PMS_P2;Temp;Humidity;BMP_temperature;BMP_pressure;BME280_temperature;BME280_humidity;BME280_pressure;Samples;Min_cycle;Max_cycle;Signal;HPM_P1;HPM_P2
2021/10/13 00:23:58;;;;;;;0.70;0.70;;;2.80;99.90;;;;;;4769184;24;20435;-80
2021/10/13 00:26:43;;;;;;;1.20;0.90;;;2.80;99.90;;;;;;4750006;30;20890;-80
2021/10/13 00:29:30;;;;;;;1.00;1.00;;;2.80;99.90;;;;;;4720392;30;20919;-80
2021/10/13 00:32:16;;;;;;;0.80;0.80;;;2.90;99.90;;;;;;4724847;30;20546;-80
2021/10/13 00:35:02;;;;;;;0.80;0.80;;;2.60;99.90;;;;;;4751761;30;20471;-80
2021/10/13 00:40:54;;;;;;;1.10;1.00;;;2.70;99.90;;;;;;5131959;24;20445;-81
2021/10/13 00:43:40;;;;;;;0.90;0.90;;;2.60;99.90;;;;;;4747440;29;20440;-81
2021/10/13 00:46:25;;;;;;;0.80;0.80;;;2.50;99.90;;;;;;4734094;30;20845;-80
2021/10/13 00:49:12;;;;;;;0.80;0.80;;;2.50;99.90;;;;;;4747195;30;20491;-80
2021/10/13 00:52:01;;;;;;;1.05;1.05;;;2.50;99.90;;;;;;4771941;30;20437;-81
2021/10/13 00:54:46;;;;;;;1.10;1.10;;;2.50;99.90;;;;;;4770566;30;20432;-81
2021/10/13 01:02:04;;;;;;;0.90;0.90;;;2.60;99.90;;;;;;5043368;24;20459;-80
2021/10/13 01:05:04;;;;;;;1.02;0.90;;;2.50;99.90;;;;;;4742158;30;20993;-80
2021/10/13 01:11:36;;;;;;;1.08;1.00;;;2.50;99.90;;;;;;4883626;24;20429;-80
2021/10/13 01:14:43;;;;;;;4.15;1.13;;;2.50;99.90;;;;;;4775126;29;20424;-80
2021/10/13 01:24:55;;;;;;;0.90;0.90;;;2.60;99.90;;;;;;4957737;24;20445;-82
2021/10/13 01:27:54;;;;;;;1.13;1.02;;;2.60;99.90;;;;;;4738952;29;20475;-82
2021/10/13 01:30:53;;;;;;;1.10;1.05;;;2.50;99.90;;;;;;4775599;29;20428;-81
2021/10/13 01:33:55;;;;;;;0.80;0.80;;;2.70;99.90;;;;;;4749608;30;20424;-82
2021/10/13 01:36:43;;;;;;;1.00;1.00;;;2.60;99.90;;;;;;4762204;29;20439;-82
2021/10/13 01:39:29;;;;;;;1.40;0.93;;;2.60;99.90;;;;;;4749694;30;20420;-80
2021/10/13 01:42:18;;;;;;;0.90;0.90;;;2.60;99.90;;;;;;4761620;30;20435;-80
2021/10/13 01:45:05;;;;;;;0.70;0.70;;;2.60;99.90;;;;;;4746216;30;20510;-80
2021/10/13 02:30:45;;;;;;;0.88;0.88;;;2.50;99.90;;;;;;4797309;24;20455;-80
2021/10/13 02:33:31;;;;;;;0.90;0.90;;;2.50;99.90;;;;;;4751327;30;20434;-80
2021/10/13 02:36:20;;;;;;;0.77;0.77;;;2.30;99.90;;;;;;4765740;29;20476;-81
2021/10/13 02:39:10;;;;;;;1.07;1.07;;;2.50;99.90;;;;;;4737053;30;21037;-81
2021/10/13 02:41:56;;;;;;;0.90;0.90;;;2.20;99.90;;;;;;4755955;30;20507;-81
2021/10/13 02:44:46;;;;;;;0.90;0.90;;;2.30;99.90;;;;;;4746028;30;20429;-80
2021/10/13 02:47:51;;;;;;;2.60;0.95;;;2.40;99.90;;;;;;4740608;30;20495;-81
2021/10/13 02:50:47;;;;;;;0.80;0.80;;;2.30;99.90;;;;;;4760691;30;20480;-81
2021/10/13 02:53:48;;;;;;;1.10;1.10;;;2.30;99.90;;;;;;4739744;30;20997;-81
2021/10/13 02:56:36;;;;;;;2.03;0.98;;;2.20;99.90;;;;;;4728708;30;20504;-81
2021/10/13 03:22:07;;;;;;;1.45;1.13;;;2.10;99.90;;;;;;5482157;24;20429;-81
2021/10/13 03:24:53;;;;;;;1.00;1.00;;;2.10;99.90;;;;;;4755081;29;20515;-81
2021/10/13 03:39:53;;;;;;;1.33;1.00;;;2.00;99.90;;;;;;5698144;24;20385;-79
2021/10/13 03:42:47;;;;;;;1.00;1.00;;;2.00;99.90;;;;;;4768191;30;20452;-80
2021/10/13 03:45:38;;;;;;;1.08;1.08;;;2.00;99.90;;;;;;4768549;30;20459;-81
2021/10/13 03:51:20;;;;;;;1.40;1.30;;;2.00;99.90;;;;;;5419879;24;20446;-80
2021/10/13 03:54:06;;;;;;;1.08;1.05;;;2.00;99.90;;;;;;4752366;30;20465;-80
2021/10/13 03:56:52;;;;;;;2.83;1.70;;;2.10;99.90;;;;;;4764843;30;20504;-80
2021/10/13 03:59:38;;;;;;;1.50;1.40;;;2.10;99.90;;;;;;4778235;30;20413;-80
2021/10/13 04:02:24;;;;;;;0.90;0.90;;;2.10;99.90;;;;;;4740851;30;20444;-80
2021/10/13 04:05:10;;;;;;;0.90;0.90;;;2.20;99.90;;;;;;4755032;30;20513;-80
2021/10/13 04:25:42;;;;;;;1.55;1.30;;;2.10;99.90;;;;;;5296864;24;20825;-80
2021/10/13 04:28:31;;;;;;;3.50;1.23;;;2.20;99.90;;;;;;4734742;30;20439;-81
2021/10/13 05:06:05;;;;;;;0.90;0.90;;;1.90;99.90;;;;;;4773609;30;21062;-80
2021/10/13 05:10:32;;;;;;;1.00;1.00;;;1.90;99.90;;;;;;4687301;30;20465;-80
2021/10/13 05:21:49;;;;;;;0.93;0.93;;;1.70;99.90;;;;;;4736663;30;20555;-81
2021/10/13 06:24:03;;;;;;;1.17;1.17;;;2.50;99.90;;;;;;4737363;30;20514;-82
2021/10/13 06:28:15;;;;;;;1.20;1.17;;;2.60;99.90;;;;;;4721645;30;20475;-83
2021/10/13 07:33:44;;;;;;;1.20;1.20;;;4.90;99.90;;;;;;5479588;24;20741;-83
2021/10/13 07:36:32;;;;;;;1.15;1.15;;;5.10;99.90;;;;;;4764302;30;20496;-83
2021/10/13 07:51:04;;;;;;;1.10;1.10;;;5.30;99.90;;;;;;5358585;24;20436;-81
2021/10/13 07:53:49;;;;;;;1.33;1.23;;;5.50;99.90;;;;;;4775820;30;20925;-81
2021/10/13 07:56:35;;;;;;;1.50;1.40;;;5.40;99.90;;;;;;4772667;30;25588;-81
2021/10/13 08:27:05;;;;;;;1.40;1.30;;;6.50;99.90;;;;;;5116333;24;20426;-82
2021/10/13 08:29:51;;;;;;;1.98;1.40;;;6.60;99.90;;;;;;4731864;30;20486;-82
2021/10/13 08:32:37;;;;;;;3.00;1.40;;;6.70;99.90;;;;;;4738056;30;20476;-82
2021/10/13 08:35:22;;;;;;;1.58;1.48;;;6.80;99.90;;;;;;4742316;30;20431;-82
2021/10/13 08:41:29;;;;;;;3.20;1.48;;;6.70;99.90;;;;;;5021651;24;20798;-81
2021/10/13 08:44:15;;;;;;;1.30;1.20;;;7.00;99.90;;;;;;4740464;30;20453;-80
2021/10/13 08:47:02;;;;;;;1.40;1.30;;;7.20;99.90;;;;;;4720686;30;20528;-80
2021/10/13 08:58:44;;;;;;;1.40;1.30;;;7.60;99.90;;;;;;5016749;24;20423;-80
2021/10/13 09:01:30;;;;;;;1.30;1.20;;;7.70;99.90;;;;;;4751064;30;20445;-81
2021/10/13 09:04:16;;;;;;;1.83;1.70;;;8.00;99.90;;;;;;4724478;30;20441;-80
2021/10/13 09:07:03;;;;;;;1.30;1.20;;;8.20;99.90;;;;;;4736373;30;20426;-80
2021/10/13 09:09:49;;;;;;;1.50;1.40;;;8.30;99.90;;;;;;4751830;30;20433;-80
2021/10/13 09:12:36;;;;;;;1.35;1.15;;;8.50;99.90;;;;;;4743003;30;20481;-82
2021/10/13 09:15:26;;;;;;;1.65;1.30;;;8.70;99.90;;;;;;4707571;30;20489;-82
2021/10/13 09:21:15;;;;;;;1.20;1.20;;;8.90;99.90;;;;;;4722953;30;20452;-82
2021/10/13 09:24:19;;;;;;;1.30;1.20;;;9.00;99.90;;;;;;4710156;30;20433;-81
2021/10/13 09:27:20;;;;;;;0.90;0.90;;;9.00;99.90;;;;;;4699630;30;21148;-80
2021/10/13 09:30:07;;;;;;;1.65;1.40;;;9.20;99.90;;;;;;4717682;30;20452;-80
2021/10/13 09:32:53;;;;;;;1.17;1.17;;;9.30;99.90;;;;;;4715468;30;20520;-81
2021/10/13 09:35:43;;;;;;;1.15;1.15;;;9.20;99.90;;;;;;4731036;30;21014;-80
2021/10/13 09:38:31;;;;;;;1.27;1.20;;;9.40;99.90;;;;;;4722222;30;20519;-80
2021/10/13 09:41:17;;;;;;;0.93;0.93;;;9.40;99.90;;;;;;4724024;30;20498;-80
2021/10/13 10:07:16;;;;;;;1.40;1.30;;;9.60;99.90;;;;;;4831595;22;30599210;-85
2021/10/13 10:10:20;;;;;;;1.08;1.08;;;10.60;99.90;;;;;;6106059;23;20749;-85
2021/10/13 10:13:13;;;;;;;1.13;1.13;;;10.70;99.90;;;;;;6087194;23;20431;-85
2021/10/13 10:16:32;;;;;;;1.00;0.90;;;10.90;99.90;;;;;;6106045;23;20389;-88
2021/10/13 10:19:25;;;;;;;0.90;0.90;;;11.30;99.90;;;;;;6076969;23;20454;-86
2021/10/13 10:22:18;;;;;;;0.97;0.97;;;11.70;99.90;;;;;;6094159;23;20419;-85
2021/10/13 10:25:07;;;;;;;1.00;0.93;;;11.70;99.90;;;;;;6103715;23;20389;-86
2021/10/13 10:27:53;;;;;;;0.90;0.90;;;11.60;99.90;;;;;;6068624;23;20401;-85
2021/10/13 10:30:42;;;;;;;0.70;0.70;;;11.60;99.90;;;;;;6101125;23;20379;-83
2021/10/13 10:33:29;;;;;;;0.80;0.80;;;11.80;99.90;;;;;;6037669;23;20397;-83
2021/10/13 10:36:19;;;;;;;0.98;0.98;;;11.80;99.90;;;;;;6105133;23;20901;-84
2021/10/13 10:39:18;;;;;;;1.20;1.10;;;11.70;99.90;;;;;;6073929;23;20373;-83
2021/10/13 10:42:11;;;;;;;1.07;0.97;;;11.60;99.90;;;;;;6112612;23;20399;-87
2021/10/13 10:45:08;;;;;;;1.08;1.02;;;11.60;99.90;;;;;;6055115;23;20454;-86
2021/10/13 10:48:27;;;;;;;0.77;0.77;;;11.70;99.90;;;;;;6067383;23;20383;-84
2021/10/13 10:51:29;;;;;;;0.90;0.90;;;11.80;99.90;;;;;;6064969;23;20433;-88
2021/10/13 10:54:36;;;;;;;2.38;1.10;;;12.10;99.90;;;;;;6113730;23;20444;-87
2021/10/13 10:57:43;;;;;;;0.90;0.90;;;12.40;99.90;;;;;;6130298;23;20757;-87
2021/10/13 11:00:37;;;;;;;0.80;0.80;;;12.80;99.90;;;;;;6111282;23;20373;-86
2021/10/13 11:03:40;;;;;;;1.30;0.80;;;12.90;99.90;;;;;;6118109;23;20580;-84
2021/10/13 11:06:51;;;;;;;0.90;0.90;;;12.80;99.90;;;;;;6085697;23;20379;-89
2021/10/13 11:09:49;;;;;;;1.00;1.00;;;12.70;99.90;;;;;;6042386;23;20391;-84
2021/10/13 11:13:02;;;;;;;0.90;0.90;;;12.60;99.90;;;;;;6003311;23;20850;-89
2021/10/13 11:16:06;;;;;;;0.70;0.70;;;12.50;99.90;;;;;;6085159;23;20405;-83
2021/10/13 11:19:29;;;;;;;1.58;1.48;;;12.60;99.90;;;;;;6099718;23;20366;-86
2021/10/13 11:22:31;;;;;;;0.70;0.70;;;12.60;99.90;;;;;;6106574;23;20406;-89
2021/10/13 11:25:41;;;;;;;0.90;0.90;;;12.60;99.90;;;;;;6086830;23;20727;-85
2021/10/13 11:29:22;;;;;;;0.93;0.93;;;12.80;99.90;;;;;;6070740;23;20485;-87
2021/10/13 11:33:38;;;;;;;0.90;0.90;;;13.30;99.90;;;;;;6060916;23;20414;-89
2021/10/13 11:37:46;;;;;;;0.70;0.70;;;13.10;99.90;;;;;;6035401;23;20451;-85
2021/10/13 11:41:46;;;;;;;0.90;0.90;;;13.00;99.90;;;;;;6010831;23;20400;-86
2021/10/13 11:45:18;;;;;;;0.90;0.90;;;13.20;99.90;;;;;;5991686;23;20391;-88
2021/10/13 11:48:20;;;;;;;0.80;0.80;;;13.80;99.90;;;;;;6106693;23;20787;-91
2021/10/13 11:55:17;;;;;;;0.70;0.70;;;13.40;99.90;;;;;;6081876;23;20416;-86
2021/10/13 11:59:13;;;;;;;1.00;0.87;;;13.50;99.90;;;;;;5974072;23;20373;-90
2021/10/13 12:08:17;;;;;;;0.80;0.80;;;12.70;99.90;;;;;;5978119;23;20413;-90
2021/10/13 12:25:29;;;;;;;0.90;0.90;;;12.10;99.90;;;;;;6026744;23;20703;-89
2021/10/13 12:29:49;;;;;;;0.70;0.70;;;12.00;99.90;;;;;;6003630;23;20460;-90
2021/10/13 13:03:51;;;;;;;0.80;0.80;;;12.00;99.90;;;;;;5988590;23;20388;-87
2021/10/13 13:12:29;;;;;;;3.95;1.98;;;12.10;99.90;;;;;;6005039;23;20450;-84
2021/10/13 14:01:17;;;;;;;1.60;1.50;;;12.00;99.90;;;;;;6205661;23;20413;-84
2021/10/13 14:34:31;;;;;;;0.88;0.88;;;12.40;99.90;;;;;;6230112;22;20372;-82
2021/10/13 14:37:17;;;;;;;1.20;1.00;;;12.30;99.90;;;;;;6209888;23;20354;-83
2021/10/13 14:40:01;;;;;;;0.90;0.90;;;12.10;99.90;;;;;;6179527;23;20374;-84
2021/10/13 14:42:46;;;;;;;2.13;1.27;;;12.00;99.90;;;;;;6203420;23;20446;-86
2021/10/13 14:45:31;;;;;;;1.52;1.20;;;11.90;99.90;;;;;;6228461;23;20386;-84
2021/10/13 14:48:16;;;;;;;1.30;1.10;;;12.10;99.90;;;;;;6204216;23;20375;-85
2021/10/13 14:51:00;;;;;;;1.38;1.27;;;11.90;99.90;;;;;;6225346;23;20370;-83
2021/10/13 14:53:45;;;;;;;0.90;0.90;;;11.90;99.90;;;;;;6200287;23;20419;-82
2021/10/13 14:56:29;;;;;;;4.03;3.53;;;11.80;99.90;;;;;;6222305;23;20430;-84
2021/10/13 14:59:13;;;;;;;2.20;1.60;;;11.80;99.90;;;;;;6204548;23;20443;-84
2021/10/13 15:02:02;;;;;;;1.10;1.10;;;11.70;99.90;;;;;;6225635;23;20366;-87
2021/10/13 15:04:47;;;;;;;1.35;1.23;;;11.60;99.90;;;;;;6200956;23;20371;-82
2021/10/13 15:07:31;;;;;;;1.15;1.05;;;11.50;99.90;;;;;;6224215;23;20443;-82
2021/10/13 15:10:16;;;;;;;1.42;1.33;;;11.40;99.90;;;;;;6150307;23;20370;-88
2021/10/13 15:13:00;;;;;;;1.17;1.17;;;11.30;99.90;;;;;;6205801;23;20371;-81
2021/10/13 15:15:44;;;;;;;1.10;1.10;;;11.20;99.90;;;;;;6184463;23;20382;-82
2021/10/13 15:18:29;;;;;;;2.10;0.90;;;11.20;99.90;;;;;;6200710;23;20370;-87
2021/10/13 15:21:13;;;;;;;1.00;1.00;;;11.30;99.90;;;;;;6175925;22;20386;-88
2021/10/13 15:23:58;;;;;;;0.77;0.77;;;11.20;99.90;;;;;;6194047;22;20378;-85
2021/10/13 15:26:42;;;;;;;0.90;0.90;;;11.20;99.90;;;;;;6215069;22;20370;-83
2021/10/13 15:29:27;;;;;;;1.00;1.00;;;11.10;99.90;;;;;;6235426;22;20433;-85
2021/10/13 15:32:11;;;;;;;1.08;1.08;;;11.00;99.90;;;;;;6215273;22;20464;-84
2021/10/13 15:34:56;;;;;;;1.95;1.40;;;11.00;99.90;;;;;;6214550;23;20371;-86
2021/10/13 15:37:43;;;;;;;1.20;1.10;;;10.90;99.90;;;;;;6196610;22;20371;-84
2021/10/13 15:40:37;;;;;;;1.23;1.13;;;10.80;99.90;;;;;;6232143;22;20395;-87
2021/10/13 16:26:28;;;;;;;1.48;1.38;;;9.70;99.90;;;;;;6152460;23;20388;-82
2021/10/13 16:29:34;;;;;;;1.35;1.25;;;9.50;99.90;;;;;;6171983;23;20818;-82
2021/10/13 16:32:30;;;;;;;0.93;0.90;;;9.40;99.90;;;;;;6127014;23;20381;-82
2021/10/13 18:15:10;;;;;;;2.13;1.93;;;7.10;99.90;;;;;;6160734;23;20381;-80
2021/10/13 18:18:01;;;;;;;1.85;1.75;;;7.00;99.90;;;;;;6131198;23;20378;-80
2021/10/13 18:20:48;;;;;;;2.05;1.95;;;7.00;99.90;;;;;;6117899;23;20433;-80
2021/10/13 18:23:37;;;;;;;2.00;1.80;;;6.90;99.90;;;;;;6067343;23;20458;-79
2021/10/13 18:26:24;;;;;;;2.00;1.77;;;6.80;99.90;;;;;;6089345;23;20502;-79
2021/10/13 18:29:11;;;;;;;2.10;1.90;;;6.80;99.90;;;;;;6091174;23;20369;-80
2021/10/13 18:31:58;;;;;;;2.13;1.98;;;6.70;99.90;;;;;;6083049;23;20392;-81
2021/10/13 18:34:56;;;;;;;2.47;1.75;;;6.60;99.90;;;;;;6119345;23;20456;-80
2021/10/13 18:37:44;;;;;;;1.80;1.65;;;6.60;99.90;;;;;;6141264;23;20424;-79
2021/10/13 18:40:39;;;;;;;1.77;1.67;;;6.50;99.90;;;;;;6095062;23;20411;-80
2021/10/13 18:43:29;;;;;;;1.90;1.80;;;6.50;99.90;;;;;;6069256;23;20378;-80
2021/10/13 18:46:22;;;;;;;1.73;1.63;;;6.40;99.90;;;;;;6089245;23;20526;-80
2021/10/13 18:49:11;;;;;;;1.60;1.50;;;6.30;99.90;;;;;;6073388;23;20382;-80
2021/10/13 18:52:00;;;;;;;2.13;1.90;;;6.30;99.90;;;;;;6079734;23;20425;-79
2021/10/13 18:54:49;;;;;;;2.03;1.88;;;6.30;99.90;;;;;;6090100;23;20445;-79
2021/10/13 18:57:39;;;;;;;1.65;1.55;;;6.30;99.90;;;;;;6092091;23;20711;-80
2021/10/13 19:00:27;;;;;;;1.35;1.35;;;6.30;99.90;;;;;;6071688;23;20370;-80
2021/10/13 19:03:15;;;;;;;1.60;1.50;;;6.20;99.90;;;;;;6082590;23;20369;-80
2021/10/13 19:06:03;;;;;;;1.40;1.30;;;6.20;99.90;;;;;;6095184;23;20374;-80
2021/10/13 19:08:56;;;;;;;1.40;1.30;;;6.10;99.90;;;;;;6132537;23;20370;-79
2021/10/13 19:11:49;;;;;;;1.80;1.70;;;6.10;99.90;;;;;;6109691;23;20377;-80
2021/10/13 19:14:40;;;;;;;1.73;1.63;;;6.00;99.90;;;;;;6079830;23;20392;-80
2021/10/13 19:17:29;;;;;;;2.17;1.75;;;6.00;99.90;;;;;;6094199;23;20377;-80
2021/10/13 19:20:29;;;;;;;3.80;3.27;;;5.90;99.90;;;;;;6064108;23;20406;-80
2021/10/13 19:23:24;;;;;;;1.90;1.80;;;5.80;99.90;;;;;;6113003;23;20382;-80
2021/10/13 19:26:13;;;;;;;1.42;1.33;;;5.80;99.90;;;;;;6132068;23;20425;-81
2021/10/13 19:29:00;;;;;;;1.50;1.40;;;5.80;99.90;;;;;;6087701;23;20374;-80
2021/10/13 19:31:48;;;;;;;1.60;1.50;;;5.80;99.90;;;;;;6113421;23;20595;-81
2021/10/13 19:34:45;;;;;;;2.70;1.70;;;5.80;99.90;;;;;;6075933;23;20378;-80
2021/10/13 19:38:16;;;;;;;1.80;1.70;;;5.80;99.90;;;;;;6140743;23;20460;-81
2021/10/13 19:41:09;;;;;;;2.08;1.83;;;5.70;99.90;;;;;;6128315;23;20416;-81
2021/10/13 19:43:59;;;;;;;1.90;1.40;;;5.60;99.90;;;;;;6115751;23;20486;-80
2021/10/13 19:46:45;;;;;;;1.70;1.60;;;5.60;99.90;;;;;;6098535;23;20711;-80
2021/10/13 19:49:32;;;;;;;1.85;1.50;;;5.60;99.90;;;;;;6069962;23;20442;-80
2021/10/13 19:52:20;;;;;;;1.77;1.67;;;5.60;99.90;;;;;;6095474;23;20833;-80
2021/10/13 19:55:07;;;;;;;1.58;1.48;;;5.60;99.90;;;;;;6115634;23;20394;-80
2021/10/13 19:57:54;;;;;;;1.85;1.67;;;5.60;99.90;;;;;;6087064;23;20814;-80
2021/10/13 20:00:43;;;;;;;1.70;1.60;;;5.60;99.90;;;;;;6115698;23;20458;-80
2021/10/13 20:03:30;;;;;;;1.70;1.60;;;5.60;99.90;;;;;;6085146;23;21064;-80
2021/10/13 20:06:20;;;;;;;1.50;1.50;;;5.60;99.90;;;;;;6097661;23;20914;-80
2021/10/13 20:09:07;;;;;;;1.92;1.83;;;5.60;99.90;;;;;;6076304;23;20394;-80
2021/10/13 20:11:53;;;;;;;1.88;1.77;;;5.60;99.90;;;;;;6109049;23;20846;-80
2021/10/13 20:14:40;;;;;;;1.60;1.50;;;5.50;99.90;;;;;;6077191;23;20382;-80
2021/10/13 20:17:26;;;;;;;1.73;1.63;;;5.40;99.90;;;;;;6089095;23;20457;-80
2021/10/13 20:20:13;;;;;;;1.70;1.60;;;5.40;99.90;;;;;;6089867;23;20437;-80
2021/10/13 20:22:59;;;;;;;1.83;1.65;;;5.40;99.90;;;;;;6134233;23;20374;-80
2021/10/13 20:25:46;;;;;;;1.95;1.85;;;5.40;99.90;;;;;;6106642;23;20448;-80
2021/10/13 20:28:33;;;;;;;1.67;1.58;;;5.40;99.90;;;;;;6090305;23;20624;-80
2021/10/13 20:31:52;;;;;;;1.70;1.60;;;5.40;99.90;;;;;;6066678;23;20438;-81
2021/10/13 20:36:05;;;;;;;1.63;1.52;;;5.40;99.90;;;;;;6097446;23;20401;-80
2021/10/13 20:39:04;;;;;;;1.80;1.60;;;5.40;99.90;;;;;;6135987;23;20434;-80
2021/10/13 20:41:57;;;;;;;1.87;1.70;;;5.40;99.90;;;;;;6051183;23;20422;-80
2021/10/13 20:44:48;;;;;;;1.88;1.77;;;5.40;99.90;;;;;;6090845;23;20375;-80
2021/10/13 20:47:41;;;;;;;2.53;2.03;;;5.30;99.90;;;;;;6086098;23;20401;-80
2021/10/13 20:50:45;;;;;;;1.73;1.63;;;5.30;99.90;;;;;;6079293;23;20403;-80
2021/10/13 20:53:47;;;;;;;1.92;1.83;;;5.30;99.90;;;;;;6091348;23;20477;-80
2021/10/13 20:56:51;;;;;;;1.50;1.40;;;5.30;99.90;;;;;;6121517;23;20384;-80
2021/10/13 20:59:40;;;;;;;2.05;1.83;;;5.30;99.90;;;;;;6101202;23;20454;-80
2021/10/13 21:02:28;;;;;;;1.95;1.80;;;5.30;99.90;;;;;;6105408;23;20886;-80
2021/10/13 21:05:16;;;;;;;1.97;1.80;;;5.30;99.90;;;;;;6086438;23;20651;-80
2021/10/13 21:08:13;;;;;;;2.17;1.98;;;5.20;99.90;;;;;;6092785;23;20386;-80
2021/10/13 21:10:59;;;;;;;1.98;1.88;;;5.30;99.90;;;;;;6078477;23;20423;-80
2021/10/13 21:13:50;;;;;;;1.92;1.77;;;5.30;99.90;;;;;;6115581;23;21129;-80
2021/10/13 21:16:40;;;;;;;2.20;2.00;;;5.30;99.90;;;;;;6110324;23;20398;-80
2021/10/13 21:19:29;;;;;;;2.85;2.33;;;5.30;99.90;;;;;;6077132;23;20458;-80
2021/10/13 21:22:17;;;;;;;2.33;2.13;;;5.30;99.90;;;;;;6115868;23;20432;-80
2021/10/13 21:25:13;;;;;;;2.30;2.10;;;5.40;99.90;;;;;;6064574;23;20372;-80
2021/10/13 21:28:06;;;;;;;2.55;2.35;;;5.40;99.90;;;;;;6117620;23;20444;-80
2021/10/13 21:30:54;;;;;;;2.38;2.17;;;5.40;99.90;;;;;;6081454;23;20439;-80
2021/10/13 21:33:43;;;;;;;2.40;2.15;;;5.40;99.90;;;;;;6071822;23;20415;-80
2021/10/13 21:36:32;;;;;;;2.67;1.90;;;5.50;99.90;;;;;;6119164;23;20408;-80
2021/10/13 21:39:19;;;;;;;1.90;1.80;;;5.50;99.90;;;;;;6080597;23;20378;-80
2021/10/13 21:50:12;;;;;;;2.55;2.35;;;5.60;99.90;;;;;;6156994;23;20374;-80
2021/10/13 21:52:58;;;;;;;3.47;2.90;;;5.70;99.90;;;;;;6092974;23;20397;-80
2021/10/13 21:55:45;;;;;;;2.58;2.38;;;5.70;99.90;;;;;;6113048;23;20914;-80
2021/10/13 21:58:38;;;;;;;3.03;2.72;;;5.80;99.90;;;;;;6065542;23;20378;-80
2021/10/13 22:02:27;;;;;;;4.03;2.45;;;5.70;99.90;;;;;;6142343;23;20383;-80
2021/10/13 22:05:42;;;;;;;2.30;2.15;;;5.70;99.90;;;;;;6146690;23;20397;-80
2021/10/13 22:09:55;;;;;;;2.67;2.47;;;5.80;99.90;;;;;;6144182;23;20378;-80
2021/10/13 22:13:46;;;;;;;2.25;2.15;;;5.80;99.90;;;;;;6055082;23;20442;-80
2021/10/13 22:16:55;;;;;;;3.17;2.60;;;5.90;99.90;;;;;;6103290;23;20400;-80
2021/10/13 22:19:57;;;;;;;2.30;2.20;;;5.90;99.90;;;;;;6092155;23;20408;-80
2021/10/13 22:22:47;;;;;;;2.28;2.17;;;5.90;99.90;;;;;;6120113;23;20432;-80
2021/10/13 22:25:46;;;;;;;2.40;2.20;;;5.90;99.90;;;;;;6091590;23;20742;-80
2021/10/13 22:28:44;;;;;;;3.22;2.60;;;5.90;99.90;;;;;;6101383;23;20496;-80
2021/10/13 22:31:56;;;;;;;2.50;2.30;;;5.90;99.90;;;;;;6135096;23;20440;-80
2021/10/13 22:35:18;;;;;;;2.15;1.98;;;5.90;99.90;;;;;;6093218;23;20374;-80
2021/10/13 22:38:16;;;;;;;2.38;2.17;;;6.00;99.90;;;;;;6141560;23;20380;-80
2021/10/13 22:41:15;;;;;;;2.60;2.30;;;6.00;99.90;;;;;;6117422;23;20400;-79
2021/10/13 22:44:12;;;;;;;2.30;2.10;;;6.00;99.90;;;;;;6091152;23;20373;-80
2021/10/13 22:47:42;;;;;;;2.90;2.70;;;6.00;99.90;;;;;;6064968;23;20393;-80
2021/10/13 22:50:34;;;;;;;2.40;2.20;;;6.00;99.90;;;;;;6132433;23;20398;-80
2021/10/13 22:53:27;;;;;;;2.35;2.15;;;6.10;99.90;;;;;;6097541;23;20428;-80
2021/10/13 22:56:40;;;;;;;2.70;2.50;;;6.10;99.90;;;;;;6095481;23;20432;-80
2021/10/13 22:59:59;;;;;;;2.40;2.20;;;6.10;99.90;;;;;;6123919;23;20478;-80
2021/10/13 23:02:45;;;;;;;2.50;2.30;;;6.20;99.90;;;;;;6092707;23;20418;-80
2021/10/13 23:05:31;;;;;;;2.50;2.30;;;6.10;99.90;;;;;;6097464;23;20374;-80
2021/10/13 23:08:18;;;;;;;1.90;1.80;;;6.10;99.90;;;;;;6083428;23;20385;-80
2021/10/13 23:11:04;;;;;;;2.22;2.03;;;6.10;99.90;;;;;;6080553;23;20443;-81
2021/10/13 23:13:53;;;;;;;2.20;2.00;;;6.20;99.90;;;;;;6122535;23;20404;-81
2021/10/13 23:16:48;;;;;;;2.30;2.10;;;6.20;99.90;;;;;;6103253;23;20402;-81
2021/10/13 23:19:36;;;;;;;2.15;2.03;;;6.20;99.90;;;;;;6138307;23;20437;-80
2021/10/13 23:22:22;;;;;;;2.20;2.00;;;6.30;99.90;;;;;;6069238;23;20430;-81
2021/10/13 23:25:10;;;;;;;2.20;2.00;;;6.30;99.90;;;;;;6121742;23;20477;-80
2021/10/13 23:27:57;;;;;;;2.35;1.95;;;6.40;99.90;;;;;;6077269;23;20378;-80
2021/10/13 23:30:44;;;;;;;1.92;1.83;;;6.30;99.90;;;;;;6101887;23;20370;-81
2021/10/13 23:33:33;;;;;;;1.92;1.83;;;6.40;99.90;;;;;;6098188;23;20370;-81
2021/10/13 23:36:26;;;;;;;2.15;1.95;;;6.40;99.90;;;;;;6107678;23;20479;-81
2021/10/13 23:39:13;;;;;;;1.92;1.83;;;6.40;99.90;;;;;;6076772;23;20453;-81
2021/10/13 23:42:00;;;;;;;2.08;1.88;;;6.40;99.90;;;;;;6120016;23;20421;-81
2021/10/13 23:44:47;;;;;;;1.80;1.70;;;6.40;99.90;;;;;;6078515;23;20386;-80
2021/10/13 23:47:37;;;;;;;1.85;1.73;;;6.50;99.90;;;;;;6105819;23;20784;-80
2021/10/13 23:50:24;;;;;;;1.70;1.60;;;6.50;99.90;;;;;;6098400;23;20460;-80
2021/10/13 23:53:10;;;;;;;1.80;1.70;;;6.50;99.90;;;;;;6098760;23;20379;-80
2021/10/13 23:55:56;;;;;;;1.63;1.53;;;6.50;99.90;;;;;;6099920;23;20429;-80
2021/10/13 23:58:42;;;;;;;1.60;1.50;;;6.50;99.90;;;;;;6112548;23;20878;-80
